Time;durP1;ratioP1;P1;durP2;ratioP2;P2;SDS_P1;SDS_P2;PMS_P1;PMS_P2;Temp;Humidity;BMP_temperature;BMP_pressure;BME280_temperature;BME280_humidity;BME280_pressure;Samples;Min_cycle;Max_cycle;Signal;HPM_P1;HPM_P2
2022/07/13 00:00:56;;;;;;;5.75;3.05;;;;;;;13.87;67.14;97214.69;5011542;28;20053;-66
2022/07/13 00:03:23;;;;;;;5.43;2.75;;;;;;;13.98;66.75;97254.56;5007068;28;20065;-64
2022/07/13 00:05:50;;;;;;;4.40;2.80;;;;;;;13.52;66.00;97165.94;5011625;28;20058;-64
2022/07/13 00:08:16;;;;;;;4.78;2.72;;;;;;;12.47;65.79;96981.53;5012420;28;20054;-66
2022/07/13 00:10:44;;;;;;;4.25;2.85;;;;;;;13.98;65.64;97243.41;5010854;28;20054;-63
2022/07/13 00:13:10;;;;;;;2.60;2.40;;;;;;;12.85;65.43;97035.84;5013243;28;20061;-64
2022/07/13 00:15:37;;;;;;;2.47;2.28;;;;;;;13.60;65.20;97145.31;5011088;28;20061;-63
2022/07/13 00:18:04;;;;;;;4.45;2.60;;;;;;;14.20;63.77;97206.16;5006414;28;20054;-63
2022/07/13 00:20:31;;;;;;;3.45;2.35;;;;;;;14.58;63.73;97255.75;5011961;28;20595;-62
2022/07/13 00:22:57;;;;;;;2.78;2.20;;;;;;;14.27;64.28;97203.44;5013491;28;20068;-63
2022/07/13 00:25:24;;;;;;;6.75;2.47;;;;;;;14.50;63.74;97254.91;5021026;28;20056;-65
2022/07/13 00:27:51;;;;;;;5.60;2.90;;;;;;;14.52;64.24;97251.75;5006440;28;20548;-64
2022/07/13 00:30:17;;;;;;;7.43;2.78;;;;;;;14.55;64.65;97256.53;5009709;28;20049;-61
2022/07/13 00:32:44;;;;;;;2.28;2.08;;;;;;;14.38;63.38;97207.09;5008095;28;20046;-62
2022/07/13 00:35:11;;;;;;;2.47;2.17;;;;;;;14.04;63.06;97155.50;5009425;28;20054;-60
2022/07/13 00:37:38;;;;;;;3.15;2.20;;;;;;;14.67;62.97;97253.38;5018246;28;20054;-61
2022/07/13 00:40:05;;;;;;;3.20;2.67;;;;;;;14.63;63.54;97252.59;5007843;28;20057;-66
2022/07/13 00:42:31;;;;;;;2.60;2.35;;;;;;;14.63;63.29;97249.81;5009054;28;20050;-67
2022/07/13 00:44:58;;;;;;;3.25;3.05;;;;;;;14.69;62.97;97245.44;5007924;28;20455;-64
2022/07/13 00:47:33;;;;;;;3.88;2.38;;;;;;;14.37;64.54;97250.09;5010232;28;20061;-67
2022/07/13 00:50:01;;;;;;;3.47;2.13;;;;;;;13.68;63.90;97113.56;5006075;28;20055;-66
2022/07/13 00:52:27;;;;;;;2.38;2.25;;;;;;;14.30;63.45;97200.69;5008862;28;20050;-67
2022/07/13 00:54:55;;;;;;;2.70;2.20;;;;;;;14.75;62.81;97271.75;5007865;28;20050;-64
2022/07/13 00:57:23;;;;;;;4.00;2.40;;;;;;;13.77;62.42;97120.78;5009982;28;20077;-63
2022/07/13 00:59:50;;;;;;;3.03;2.22;;;;;;;14.01;62.36;97128.44;5006911;28;20549;-61
2022/07/13 01:02:16;;;;;;;5.38;2.00;;;;;;;14.70;61.56;97219.19;5009985;28;20061;-64
2022/07/13 01:04:44;;;;;;;2.00;1.90;;;;;;;15.07;61.48;97245.59;5007677;28;20574;-61
2022/07/13 01:07:11;;;;;;;3.15;2.35;;;;;;;15.11;62.58;97245.59;5005352;28;20077;-65
2022/07/13 01:09:38;;;;;;;2.38;2.20;;;;;;;13.47;64.19;97054.97;5020323;28;20062;-64
2022/07/13 01:12:05;;;;;;;3.10;2.17;;;;;;;14.64;64.51;97254.97;5009995;28;20054;-61
2022/07/13 01:14:34;;;;;;;5.40;2.83;;;;;;;13.48;66.42;97120.56;5005358;28;20046;-63
2022/07/13 01:17:01;;;;;;;4.07;2.42;;;;;;;13.77;66.33;97193.16;5005840;28;20060;-65
2022/07/13 01:19:28;;;;;;;4.47;2.40;;;;;;;14.29;66.41;97242.88;5005289;28;20093;-63
2022/07/13 01:21:58;;;;;;;2.60;2.40;;;;;;;14.12;67.09;97249.88;5005267;28;20053;-61
2022/07/13 01:24:28;;;;;;;5.00;2.42;;;;;;;13.81;67.21;97210.69;5004127;28;20068;-62
2022/07/13 01:26:55;;;;;;;3.13;2.42;;;;;;;13.73;67.60;97181.19;5003961;28;20066;-60
2022/07/13 01:29:22;;;;;;;2.72;2.53;;;;;;;13.47;67.39;97146.81;5004002;28;20056;-61
2022/07/13 01:31:48;;;;;;;4.10;2.50;;;;;;;13.78;67.40;97184.44;5010113;28;20061;-65
2022/07/13 01:34:16;;;;;;;3.10;2.58;;;;;;;12.98;67.11;97035.16;5005370;28;20054;-65
2022/07/13 01:36:43;;;;;;;5.43;2.88;;;;;;;11.86;67.10;96937.72;5011241;28;20052;-64
2022/07/13 01:39:10;;;;;;;7.55;2.80;;;;;;;11.93;68.70;96939.78;5005019;28;20064;-61
2022/07/13 01:41:36;;;;;;;5.00;2.72;;;;;;;12.51;68.44;97021.25;5010771;28;20068;-63
2022/07/13 01:44:03;;;;;;;6.93;3.28;;;;;;;13.98;68.08;97229.50;5004897;28;20062;-64
2022/07/13 01:46:30;;;;;;;5.50;3.10;;;;;;;13.75;68.06;97201.09;5010352;28;20057;-61
2022/07/13 01:48:57;;;;;;;3.17;2.38;;;;;;;14.06;67.92;97251.44;5020411;28;20050;-64
2022/07/13 01:51:24;;;;;;;1.90;1.80;;;;;;;12.83;67.68;97041.78;5009918;28;20053;-64
2022/07/13 01:53:51;;;;;;;6.30;3.22;;;;;;;13.26;70.54;97241.22;5004017;28;20417;-61
2022/07/13 01:56:18;;;;;;;2.88;2.53;;;;;;;12.92;71.93;97203.53;5010923;28;20112;-63
2022/07/13 01:58:44;;;;;;;2.58;2.30;;;;;;;12.33;70.93;97086.19;5004925;28;20050;-65
2022/07/13 02:01:11;;;;;;;1.92;1.83;;;;;;;13.26;71.30;97251.59;5009901;28;20058;-67
2022/07/13 02:03:38;;;;;;;2.30;1.75;;;;;;;12.78;70.13;97142.22;5004722;28;20483;-60
2022/07/13 02:06:05;;;;;;;5.72;2.53;;;;;;;11.62;73.22;97062.25;5008431;28;20057;-61
2022/07/13 02:08:32;;;;;;;4.60;2.15;;;;;;;12.72;72.64;97191.00;5004418;28;20596;-61
2022/07/13 02:10:59;;;;;;;2.90;2.08;;;;;;;12.84;70.92;97181.56;5009349;28;20056;-65
2022/07/13 02:13:26;;;;;;;7.65;2.10;;;;;;;13.16;70.71;97233.59;5003763;28;20052;-65
2022/07/13 02:15:53;;;;;;;2.10;1.85;;;;;;;12.59;69.79;97125.75;5009206;28;20073;-61
2022/07/13 02:18:20;;;;;;;1.95;1.85;;;;;;;13.54;69.07;97252.66;5005338;28;20062;-63
2022/07/13 02:20:47;;;;;;;2.10;2.00;;;;;;;12.29;68.78;97047.25;5010729;28;20595;-61
2022/07/13 02:23:14;;;;;;;5.03;2.08;;;;;;;12.59;69.38;97095.19;5005332;28;20604;-64
2022/07/13 02:25:41;;;;;;;5.10;2.20;;;;;;;13.66;69.20;97243.97;5009589;28;20497;-64
2022/07/13 02:28:08;;;;;;;2.88;1.85;;;;;;;13.40;67.83;97201.63;5005167;28;20053;-62
2022/07/13 02:30:35;;;;;;;2.55;1.38;;;;;;;13.07;67.40;97110.72;5009884;28;20518;-61
2022/07/13 02:33:02;;;;;;;3.67;1.90;;;;;;;13.50;67.42;97173.88;5005158;28;20068;-61
2022/07/13 02:35:29;;;;;;;2.42;1.95;;;;;;;13.04;67.19;97083.69;5010194;28;20064;-62
2022/07/13 02:37:56;;;;;;;4.82;2.10;;;;;;;13.68;67.89;97197.09;5009938;28;20547;-63
2022/07/13 02:40:22;;;;;;;2.08;1.90;;;;;;;13.51;67.54;97164.31;5008823;28;20046;-61
2022/07/13 02:42:49;;;;;;;2.00;1.90;;;;;;;13.66;67.24;97204.22;5004021;28;20050;-66
2022/07/13 02:45:16;;;;;;;1.73;1.63;;;;;;;13.37;67.60;97146.75;5008382;28;20436;-63
2022/07/13 02:47:43;;;;;;;3.42;1.92;;;;;;;12.81;67.61;97054.47;5006288;28;20060;-64
2022/07/13 02:50:10;;;;;;;2.80;1.88;;;;;;;13.72;67.46;97176.81;5006413;28;20057;-62
2022/07/13 02:52:37;;;;;;;3.30;2.10;;;;;;;13.58;67.71;97186.66;5007065;28;20058;-63
2022/07/13 02:55:05;;;;;;;2.05;1.95;;;;;;;14.10;67.19;97232.75;5006627;28;20124;-63
2022/07/13 02:57:31;;;;;;;2.25;2.05;;;;;;;13.38;67.56;97146.34;5010869;28;20079;-64
2022/07/13 02:59:58;;;;;;;3.95;1.75;;;;;;;13.69;68.02;97209.81;5019171;28;20057;-61
2022/07/13 03:02:25;;;;;;;2.83;2.03;;;;;;;13.66;67.58;97160.47;5008041;28;20538;-64
2022/07/13 03:04:52;;;;;;;3.00;2.00;;;;;;;13.91;67.87;97223.88;5005265;28;20052;-63
2022/07/13 03:07:19;;;;;;;1.85;1.75;;;;;;;13.90;68.17;97225.06;5008364;28;20072;-62
2022/07/13 03:09:45;;;;;;;2.40;1.75;;;;;;;13.83;68.57;97225.03;5005009;28;20085;-64
2022/07/13 03:12:12;;;;;;;1.85;1.75;;;;;;;13.17;69.21;97143.41;5007776;28;20050;-62
2022/07/13 03:14:39;;;;;;;1.70;1.60;;;;;;;13.86;68.96;97224.25;5004721;28;20073;-62
2022/07/13 03:17:05;;;;;;;2.42;2.20;;;;;;;12.38;68.66;97010.84;5011184;28;20053;-62
2022/07/13 03:19:33;;;;;;;1.85;1.75;;;;;;;13.18;68.59;97139.41;5008445;28;20049;-64
2022/07/13 03:22:03;;;;;;;4.20;2.03;;;;;;;13.48;68.51;97187.38;5006885;28;20546;-64
2022/07/13 03:24:29;;;;;;;2.25;1.98;;;;;;;13.92;68.32;97250.53;5007164;28;20053;-63
2022/07/13 03:26:56;;;;;;;3.42;1.80;;;;;;;13.86;68.31;97232.59;5007066;28;20053;-62
2022/07/13 03:29:23;;;;;;;2.42;2.00;;;;;;;13.88;68.72;97238.59;5007328;28;20073;-61
2022/07/13 03:31:49;;;;;;;4.10;2.00;;;;;;;13.16;69.15;97116.78;5008920;28;20046;-63
2022/07/13 03:34:17;;;;;;;3.03;2.13;;;;;;;13.75;69.27;97217.81;5007384;28;20072;-65
2022/07/13 03:36:44;;;;;;;6.05;2.30;;;;;;;13.70;69.72;97249.59;5011761;28;20576;-61
2022/07/13 03:39:11;;;;;;;5.03;1.92;;;;;;;13.25;72.39;97253.56;5007493;28;20166;-64
2022/07/13 03:41:38;;;;;;;1.85;1.75;;;;;;;13.10;73.26;97242.66;5007350;28;20061;-64
2022/07/13 03:44:05;;;;;;;2.85;1.85;;;;;;;12.05;71.75;97037.47;5007587;28;20053;-62
2022/07/13 03:46:31;;;;;;;4.15;2.10;;;;;;;13.31;70.51;97176.91;5012251;28;20065;-63
2022/07/13 03:48:58;;;;;;;1.92;1.83;;;;;;;13.10;69.08;97115.50;5006833;28;20531;-62
2022/07/13 03:51:25;;;;;;;3.53;2.03;;;;;;;12.93;70.44;97138.38;5012376;28;20822;-64
2022/07/13 03:53:52;;;;;;;9.30;2.97;;;;;;;12.81;74.05;97185.94;5005799;28;20104;-66
2022/07/13 03:56:18;;;;;;;3.00;2.08;;;;;;;13.60;72.42;97239.16;5012030;28;20054;-62
2022/07/13 03:58:45;;;;;;;1.90;1.80;;;;;;;12.87;70.16;97078.75;5007169;28;20153;-64
2022/07/13 04:01:12;;;;;;;1.73;1.63;;;;;;;13.77;68.58;97191.16;5012925;28;20057;-62
2022/07/13 04:03:38;;;;;;;4.15;1.83;;;;;;;14.23;68.51;97233.22;5022556;28;20049;-62
2022/07/13 04:06:05;;;;;;;2.40;2.20;;;;;;;13.76;68.16;97121.94;5011596;28;20141;-65
2022/07/13 04:08:32;;;;;;;2.00;1.90;;;;;;;13.76;67.10;97085.75;5006642;28;20469;-62
2022/07/13 04:10:58;;;;;;;3.95;2.30;;;;;;;14.48;66.46;97178.47;5011645;28;20057;-63
2022/07/13 04:13:25;;;;;;;6.43;2.30;;;;;;;14.47;66.67;97174.88;5015384;28;20503;-65
2022/07/13 04:15:52;;;;;;;2.95;2.10;;;;;;;14.59;66.53;97184.88;5022219;28;20057;-65
2022/07/13 04:18:18;;;;;;;2.30;1.92;;;;;;;14.94;67.05;97269.44;5006842;28;20061;-64
2022/07/13 04:20:45;;;;;;;2.72;1.77;;;;;;;14.00;67.04;97085.09;5009840;28;20050;-61
2022/07/13 04:23:12;;;;;;;6.63;1.90;;;;;;;15.17;66.67;97246.81;5013139;28;20064;-62
2022/07/13 04:25:39;;;;;;;5.72;2.20;;;;;;;15.28;67.51;97267.16;5011152;28;20486;-65
2022/07/13 04:28:05;;;;;;;2.40;2.20;;;;;;;14.93;68.33;97239.16;5006020;28;20053;-61
2022/07/13 04:30:32;;;;;;;3.00;2.45;;;;;;;14.56;70.27;97207.94;5010012;28;20053;-65
2022/07/13 04:32:59;;;;;;;2.30;2.10;;;;;;;14.01;68.57;97048.47;5007637;28;20060;-63
2022/07/13 04:35:25;;;;;;;3.47;2.30;;;;;;;14.96;66.81;97143.53;5008677;28;20428;-62
2022/07/13 04:37:52;;;;;;;5.60;2.65;;;;;;;15.78;66.53;97246.50;5012223;28;20053;-64
2022/07/13 04:40:19;;;;;;;4.63;2.80;;;;;;;15.92;65.90;97251.28;5005897;28;20496;-61
2022/07/13 04:42:46;;;;;;;5.15;2.67;;;;;;;15.52;65.07;97153.97;5009336;28;20061;-62
2022/07/13 04:45:13;;;;;;;6.30;2.83;;;;;;;16.01;63.99;97187.41;5008652;28;20050;-63
2022/07/13 04:47:39;;;;;;;8.40;2.55;;;;;;;16.59;62.38;97247.22;5008075;28;20061;-61
2022/07/13 04:50:06;;;;;;;2.75;2.55;;;;;;;15.48;61.61;97059.03;5007242;28;20060;-63
2022/07/13 04:52:33;;;;;;;3.60;2.58;;;;;;;15.62;60.66;97059.00;5009280;28;20049;-63
2022/07/13 04:55:01;;;;;;;7.22;3.35;;;;;;;17.07;59.35;97255.00;5005333;28;20057;-62
2022/07/13 04:57:28;;;;;;;3.85;2.85;;;;;;;16.61;58.14;97176.88;5011493;28;20512;-63
2022/07/13 04:59:55;;;;;;;3.13;2.50;;;;;;;17.41;57.46;97250.38;5023549;28;20053;-65
2022/07/13 05:02:22;;;;;;;3.92;2.92;;;;;;;16.67;57.04;97108.09;5010199;28;20049;-68
2022/07/13 05:04:49;;;;;;;3.10;2.78;;;;;;;17.19;55.77;97151.75;5006756;28;20049;-64
2022/07/13 05:07:16;;;;;;;2.72;2.33;;;;;;;17.97;54.90;97236.00;5008373;28;20049;-66
2022/07/13 05:09:43;;;;;;;4.53;2.92;;;;;;;18.21;54.98;97237.75;5006841;28;20062;-65
2022/07/13 05:12:10;;;;;;;5.53;3.10;;;;;;;17.75;54.73;97178.53;5009568;28;20514;-70
2022/07/13 05:14:36;;;;;;;2.95;2.75;;;;;;;17.93;54.70;97148.31;5005916;28;20053;-68
2022/07/13 05:17:03;;;;;;;3.65;3.20;;;;;;;18.28;54.24;97195.63;5009766;28;20064;-68
2022/07/13 05:19:30;;;;;;;6.70;2.92;;;;;;;18.31;53.74;97160.31;5004199;28;20061;-70
2022/07/13 05:21:56;;;;;;;4.05;3.20;;;;;;;18.84;54.43;97242.69;5028152;28;20065;-65
2022/07/13 05:24:23;;;;;;;7.82;2.50;;;;;;;19.14;53.74;97248.31;5024450;28;20041;-65
2022/07/13 05:26:50;;;;;;;3.28;2.63;;;;;;;19.17;53.39;97230.63;5010327;28;20057;-60
2022/07/13 05:29:16;;;;;;;4.07;3.10;;;;;;;19.07;53.09;97181.03;5005302;28;20061;-69
2022/07/13 05:31:43;;;;;;;3.30;2.40;;;;;;;19.63;51.49;97240.44;5010089;28;20066;-69
2022/07/13 05:34:10;;;;;;;3.55;2.40;;;;;;;19.25;51.15;97147.09;5004951;28;20517;-64
2022/07/13 05:36:37;;;;;;;6.35;3.50;;;;;;;17.39;51.18;96835.53;5007404;28;20054;-65
2022/07/13 05:39:04;;;;;;;4.03;2.60;;;;;;;19.97;49.79;97204.53;5021843;28;20060;-65
2022/07/13 05:41:32;;;;;;;3.08;2.30;;;;;;;20.30;48.58;97243.75;5012069;28;20463;-66
2022/07/13 05:43:59;;;;;;;4.15;3.00;;;;;;;20.30;48.87;97206.38;5003673;28;20081;-65
2022/07/13 05:46:26;;;;;;;2.58;2.42;;;;;;;20.39;48.05;97195.38;5010498;28;20062;-65
2022/07/13 05:48:53;;;;;;;4.22;2.65;;;;;;;20.41;46.43;97201.34;5008852;28;20155;-74
2022/07/13 05:51:20;;;;;;;3.55;2.30;;;;;;;20.95;45.68;97205.47;5019948;28;20052;-61
2022/07/13 05:54:00;;;;;;;2.95;2.75;;;;;;;21.44;45.22;97238.25;5004529;28;20068;-67
2022/07/13 05:56:47;;;;;;;3.05;2.75;;;;;;;20.18;44.95;97041.03;5018716;28;20059;-68
2022/07/13 05:59:15;;;;;;;2.70;2.60;;;;;;;21.83;43.68;97252.25;5009772;28;20348;-69
2022/07/13 06:01:43;;;;;;;3.58;3.28;;;;;;;21.97;44.19;97229.34;5018218;28;20064;-66
2022/07/13 06:04:10;;;;;;;3.40;3.10;;;;;;;22.22;43.61;97252.09;5007689;28;20389;-61
2022/07/13 06:06:37;;;;;;;3.97;3.00;;;;;;;21.76;42.99;97134.00;5009539;28;20051;-64
2022/07/13 06:09:03;;;;;;;6.85;3.00;;;;;;;22.31;41.07;97197.84;5023401;28;20061;-62
2022/07/13 06:11:30;;;;;;;3.22;3.03;;;;;;;22.18;40.13;97158.25;5012843;28;20061;-62
2022/07/13 06:13:57;;;;;;;3.15;2.95;;;;;;;22.65;40.09;97226.41;5012761;28;20073;-62
2022/07/13 06:16:24;;;;;;;8.85;3.38;;;;;;;22.83;40.82;97223.84;5014916;28;20543;-63
2022/07/13 06:18:51;;;;;;;5.75;2.88;;;;;;;22.89;39.60;97221.28;5011236;28;20077;-64
2022/07/13 06:21:17;;;;;;;3.88;2.70;;;;;;;22.91;39.14;97219.59;5029422;28;20060;-63
2022/07/13 06:23:44;;;;;;;4.60;2.90;;;;;;;23.02;39.24;97225.72;5011531;28;20144;-68
2022/07/13 06:26:11;;;;;;;3.53;3.20;;;;;;;22.52;38.40;97190.84;5010491;28;20045;-62
2022/07/13 06:28:37;;;;;;;3.72;3.42;;;;;;;23.26;39.53;97229.09;5007651;28;20058;-69
2022/07/13 06:31:04;;;;;;;4.55;3.10;;;;;;;23.37;38.90;97221.09;5011910;28;20432;-65
2022/07/13 06:33:31;;;;;;;3.58;3.28;;;;;;;23.50;37.09;97221.91;5017383;28;20099;-65
2022/07/13 06:35:58;;;;;;;3.90;3.60;;;;;;;23.00;38.42;97194.28;5008881;28;20057;-63
2022/07/13 06:38:24;;;;;;;3.75;3.42;;;;;;;23.56;37.88;97235.03;5016013;28;20443;-65
2022/07/13 06:40:51;;;;;;;3.40;3.22;;;;;;;23.87;37.28;97235.25;5007392;28;20053;-61
2022/07/13 06:43:18;;;;;;;3.60;3.30;;;;;;;24.05;36.37;97229.03;5008203;28;20056;-64
2022/07/13 06:45:46;;;;;;;3.15;2.95;;;;;;;24.02;36.60;97191.13;5013265;28;20140;-65
2022/07/13 06:48:13;;;;;;;3.70;3.50;;;;;;;24.24;36.22;97197.66;5011803;28;20046;-65
2022/07/13 06:50:40;;;;;;;3.38;3.20;;;;;;;24.41;35.92;97230.22;5008912;28;20065;-66
2022/07/13 06:53:06;;;;;;;3.50;3.40;;;;;;;24.60;35.07;97219.84;5010869;28;20058;-71
2022/07/13 06:55:34;;;;;;;3.40;3.13;;;;;;;24.42;35.76;97197.81;5014149;28;21262;-65
2022/07/13 06:58:01;;;;;;;3.72;3.42;;;;;;;24.72;35.57;97227.56;5011294;28;20132;-64
2022/07/13 07:00:28;;;;;;;4.00;3.75;;;;;;;24.88;35.63;97236.66;5013017;28;20046;-62
2022/07/13 07:02:54;;;;;;;3.38;3.28;;;;;;;24.48;35.14;97190.34;5020316;28;20440;-63
2022/07/13 07:05:22;;;;;;;3.65;3.55;;;;;;;24.79;35.05;97202.59;5012205;28;20057;-64
2022/07/13 07:07:48;;;;;;;5.70;5.40;;;;;;;25.14;34.94;97223.16;5015361;28;20049;-64
2022/07/13 07:10:15;;;;;;;4.03;3.83;;;;;;;22.39;35.18;96782.25;5019692;28;20068;-64
2022/07/13 07:12:42;;;;;;;4.38;4.07;;;;;;;25.03;35.15;97168.91;5015422;28;20061;-67
2022/07/13 07:15:09;;;;;;;4.00;3.72;;;;;;;25.06;34.45;97179.31;5019227;28;20065;-62
2022/07/13 07:17:46;;;;;;;4.13;3.80;;;;;;;25.30;34.55;97217.28;5018448;28;20053;-65
2022/07/13 07:20:14;;;;;;;4.80;4.40;;;;;;;24.67;35.29;97163.78;5016878;28;20138;-61
2022/07/13 07:22:42;;;;;;;4.10;3.80;;;;;;;24.61;35.25;97199.56;5011020;28;20455;-67
2022/07/13 07:25:09;;;;;;;4.03;3.78;;;;;;;24.87;35.90;97206.75;5009909;28;20068;-67
2022/07/13 07:27:36;;;;;;;4.22;4.00;;;;;;;24.75;35.22;97220.97;5016399;28;20512;-67
2022/07/13 07:30:03;;;;;;;4.00;3.70;;;;;;;24.72;35.02;97222.66;5018613;28;20046;-62
2022/07/13 07:32:30;;;;;;;4.13;3.83;;;;;;;24.64;35.10;97224.16;5010460;28;20053;-59
2022/07/13 07:34:57;;;;;;;4.25;3.60;;;;;;;24.17;35.32;97141.25;5008173;28;20053;-59
2022/07/13 07:37:24;;;;;;;4.32;4.00;;;;;;;24.61;35.20;97222.22;5009885;28;20046;-61
2022/07/13 07:39:51;;;;;;;6.50;4.20;;;;;;;24.95;35.24;97196.72;5007785;28;20053;-62
2022/07/13 07:42:18;;;;;;;4.28;4.07;;;;;;;25.30;34.31;97220.91;5009602;28;20064;-61
2022/07/13 07:44:45;;;;;;;5.47;4.40;;;;;;;25.19;35.29;97163.81;5016957;28;20392;-60
2022/07/13 07:47:11;;;;;;;5.40;4.90;;;;;;;25.35;34.19;97156.34;5011367;28;20049;-61
2022/07/13 07:49:38;;;;;;;4.00;3.70;;;;;;;25.65;34.04;97226.47;5007055;28;20052;-62
2022/07/13 07:52:07;;;;;;;6.82;4.47;;;;;;;25.12;34.69;97229.28;5011284;28;20058;-61
2022/07/13 07:54:53;;;;;;;9.50;4.70;;;;;;;24.67;35.69;97226.09;5007452;28;20038;-60
2022/07/13 07:57:26;;;;;;;3.67;3.47;;;;;;;24.73;35.26;97235.59;5007189;28;20061;-60
2022/07/13 07:59:53;;;;;;;4.40;3.80;;;;;;;24.88;35.08;97222.47;5007188;28;20497;-60
2022/07/13 08:02:20;;;;;;;3.88;3.67;;;;;;;24.79;34.14;97181.94;5010761;28;20058;-63
2022/07/13 08:04:47;;;;;;;3.47;3.28;;;;;;;25.24;33.69;97228.41;5006498;28;20053;-60
2022/07/13 08:07:13;;;;;;;4.38;4.07;;;;;;;24.56;34.84;97231.34;5010785;28;20061;-60
2022/07/13 08:09:40;;;;;;;3.65;3.55;;;;;;;24.81;34.73;97222.75;5022360;28;20077;-60
2022/07/13 08:12:07;;;;;;;3.60;3.40;;;;;;;25.04;34.16;97233.63;5009345;28;20136;-61
2022/07/13 08:14:33;;;;;;;3.97;3.67;;;;;;;25.09;34.39;97182.00;5006611;28;20061;-62
2022/07/13 08:17:00;;;;;;;4.55;4.25;;;;;;;25.83;34.34;97220.91;5011427;28;20449;-60
2022/07/13 08:19:27;;;;;;;5.18;4.18;;;;;;;26.12;33.23;97209.97;5006494;28;20061;-62
2022/07/13 08:22:06;;;;;;;4.90;4.68;;;;;;;26.05;33.41;97193.25;5024567;28;20646;-61
2022/07/13 08:24:34;;;;;;;8.00;4.53;;;;;;;26.19;33.33;97209.69;5006228;28;20547;-60
2022/07/13 08:27:01;;;;;;;7.13;4.60;;;;;;;25.46;34.73;97190.75;5010709;28;20497;-61
2022/07/13 08:29:28;;;;;;;4.30;3.90;;;;;;;24.84;35.01;97164.34;5004320;28;20120;-60
2022/07/13 08:31:54;;;;;;;4.40;4.20;;;;;;;25.58;34.25;97209.72;5008451;28;20061;-60
2022/07/13 08:39:51;;;;;;;4.18;3.97;;;;;;;25.03;34.78;97226.41;5023584;28;20598;-60
2022/07/13 08:42:18;;;;;;;4.38;4.07;;;;;;;25.30;33.62;97223.75;5009871;28;20081;-61
2022/07/13 08:44:45;;;;;;;3.90;3.70;;;;;;;25.37;32.58;97153.84;5017366;28;20053;-62
2022/07/13 08:47:12;;;;;;;4.15;3.85;;;;;;;24.84;33.92;97219.00;5009361;28;20054;-60
2022/07/13 08:49:38;;;;;;;3.88;3.67;;;;;;;25.12;33.22;97155.56;5005245;28;20054;-62
2022/07/13 08:52:06;;;;;;;5.50;5.00;;;;;;;25.94;32.32;97209.91;5014797;28;20168;-61
2022/07/13 08:54:33;;;;;;;4.78;4.47;;;;;;;25.58;31.80;97175.69;5018848;28;20137;-61
2022/07/13 08:56:59;;;;;;;4.47;4.18;;;;;;;26.06;32.01;97223.22;4971408;28;20081;-59
2022/07/13 08:59:26;;;;;;;3.80;3.70;;;;;;;26.49;30.82;97211.66;5003804;28;20058;-60
2022/07/13 09:01:53;;;;;;;3.83;3.63;;;;;;;26.93;30.03;97200.78;5002865;28;20162;-60
2022/07/13 09:04:20;;;;;;;4.78;4.47;;;;;;;27.35;30.21;97210.22;5004968;28;20057;-61
2022/07/13 09:06:48;;;;;;;4.53;4.32;;;;;;;27.41;29.03;97226.19;5005322;28;20510;-60
2022/07/13 09:09:33;;;;;;;4.32;4.13;;;;;;;27.07;28.87;97200.94;5005388;28;20058;-59
2022/07/13 09:12:25;;;;;;;4.55;4.35;;;;;;;27.02;29.78;97193.03;5004174;28;20153;-63
2022/07/13 09:14:57;;;;;;;4.63;4.28;;;;;;;26.91;29.29;97180.56;5005172;28;20076;-60
2022/07/13 09:17:36;;;;;;;5.07;4.47;;;;;;;26.53;30.08;97166.78;5004748;28;20061;-60
2022/07/13 09:20:09;;;;;;;4.07;3.92;;;;;;;25.92;30.49;97215.25;5006333;28;20054;-61
2022/07/13 09:22:55;;;;;;;6.15;4.53;;;;;;;26.23;30.49;97213.16;5007398;28;20133;-59
2022/07/13 09:25:32;;;;;;;6.57;5.60;;;;;;;26.60;30.56;97206.28;5015374;28;20121;-59
2022/07/13 09:28:06;;;;;;;4.28;4.05;;;;;;;26.70;30.17;97211.53;5013934;28;20336;-66
2022/07/13 09:30:33;;;;;;;;;;;;;;;26.96;30.38;97194.16;5016774;28;20141;-61
2022/07/13 09:33:02;;;;;;;5.88;4.65;;;;;;;26.96;30.53;97189.25;5024550;28;19932;-61
2022/07/13 09:35:49;;;;;;;5.40;5.10;;;;;;;27.14;29.31;97208.34;5012611;28;20140;-62
2022/07/13 09:38:31;;;;;;;4.13;3.92;;;;;;;27.07;29.19;97212.31;5020923;28;20089;-62
2022/07/13 09:41:14;;;;;;;8.20;4.38;;;;;;;27.39;28.55;97177.50;5015812;28;20095;-62
2022/07/13 09:46:57;;;;;;;4.78;4.47;;;;;;;27.78;28.96;97244.75;5010119;28;20053;-72
2022/07/13 09:49:45;;;;;;;4.80;4.50;;;;;;;27.12;27.44;97123.50;5010318;28;20054;-65
2022/07/13 09:52:19;;;;;;;4.40;4.18;;;;;;;26.74;27.30;97174.41;5007708;28;20099;-66
2022/07/13 09:54:54;;;;;;;4.30;3.97;;;;;;;25.39;27.81;97054.91;5011407;28;20156;-65
2022/07/13 09:57:23;;;;;;;4.25;3.85;;;;;;;25.87;29.12;97205.31;5013548;28;20585;-61
2022/07/13 09:59:51;;;;;;;3.90;3.70;;;;;;;25.45;29.54;97172.16;5014531;28;20095;-65
2022/07/13 10:02:19;;;;;;;3.90;3.60;;;;;;;25.28;29.54;97195.06;5011497;28;20140;-67
2022/07/13 10:04:48;;;;;;;4.03;3.63;;;;;;;25.91;29.49;97216.53;5018585;28;20060;-61
2022/07/13 10:07:18;;;;;;;3.70;3.60;;;;;;;26.14;28.19;97179.06;5010122;28;20096;-62
2022/07/13 10:09:45;;;;;;;3.78;3.58;;;;;;;26.10;27.80;97172.72;5006107;28;20508;-67
2022/07/13 10:12:13;;;;;;;3.67;3.47;;;;;;;26.45;27.21;97179.72;5008857;28;20531;-64
2022/07/13 10:14:41;;;;;;;6.35;4.20;;;;;;;26.35;27.73;97098.63;5009208;28;20050;-65
2022/07/13 10:17:11;;;;;;;4.22;4.03;;;;;;;27.13;27.23;97164.88;5009770;28;20081;-63
2022/07/13 10:19:44;;;;;;;4.18;3.92;;;;;;;27.63;27.03;97215.38;5005360;28;20056;-62
2022/07/13 10:22:17;;;;;;;4.22;3.83;;;;;;;27.07;27.37;97112.75;5008215;28;20056;-61
2022/07/13 10:24:59;;;;;;;4.38;4.18;;;;;;;27.44;27.47;97188.22;5011888;28;20175;-69
2022/07/13 10:27:33;;;;;;;6.55;5.20;;;;;;;26.36;28.77;97049.84;5019160;28;20053;-76
2022/07/13 10:30:17;;;;;;;4.28;4.07;;;;;;;26.62;27.54;97175.31;5022155;28;20403;-61
2022/07/13 10:32:46;;;;;;;4.00;3.90;;;;;;;26.23;29.08;97156.34;5012013;28;20551;-62
2022/07/13 10:35:16;;;;;;;4.43;4.13;;;;;;;25.96;30.40;97159.09;5013031;28;20544;-62
2022/07/13 10:38:14;;;;;;;4.70;4.22;;;;;;;25.81;30.23;97166.63;5014742;28;20096;-60
2022/07/13 10:40:41;;;;;;;4.20;4.00;;;;;;;24.97;30.90;97046.81;5023039;28;20431;-61
2022/07/13 10:43:09;;;;;;;4.20;3.90;;;;;;;25.45;30.55;97143.78;5018448;28;20172;-62
2022/07/13 10:45:53;;;;;;;4.70;4.50;;;;;;;25.99;29.83;97166.66;5020969;28;20129;-60
2022/07/13 10:48:42;;;;;;;3.85;3.55;;;;;;;25.55;30.09;97168.91;5011289;28;20045;-56
2022/07/13 10:51:17;;;;;;;5.93;3.90;;;;;;;25.41;31.04;97154.47;5026415;28;20057;-59
2022/07/13 10:53:46;;;;;;;6.72;4.00;;;;;;;25.68;31.33;97174.47;5038398;28;20491;-58
2022/07/13 10:56:21;;;;;;;4.28;3.95;;;;;;;25.97;30.17;97129.47;5017455;28;20444;-61
2022/07/13 10:58:49;;;;;;;4.25;3.97;;;;;;;26.30;30.65;97147.53;5010242;28;20579;-61
2022/07/13 11:01:47;;;;;;;5.88;3.85;;;;;;;25.85;31.26;97150.22;5013058;28;20527;-59
2022/07/13 11:04:17;;;;;;;4.82;4.15;;;;;;;25.82;31.17;97154.00;5017906;28;20516;-59
2022/07/13 11:07:07;;;;;;;4.28;3.90;;;;;;;25.49;31.18;97144.44;5021924;28;20081;-61
2022/07/13 11:09:34;;;;;;;3.75;3.53;;;;;;;24.97;31.23;97103.53;5009766;28;20062;-60
2022/07/13 11:12:01;;;;;;;3.70;3.50;;;;;;;25.16;31.28;97115.75;5012402;28;20132;-60
2022/07/13 11:14:40;;;;;;;4.50;3.28;;;;;;;25.22;32.28;97139.41;5009284;28;20160;-60
2022/07/13 11:17:36;;;;;;;4.00;3.60;;;;;;;24.79;32.75;97143.06;5017609;28;20050;-62
2022/07/13 11:20:09;;;;;;;3.70;3.50;;;;;;;25.05;33.26;97121.03;5011877;28;20367;-60
2022/07/13 11:25:47;;;;;;;5.28;3.58;;;;;;;25.90;30.87;97136.22;5010950;28;19940;-62
2022/07/13 11:28:25;;;;;;;3.65;3.45;;;;;;;26.22;29.86;97134.91;5019628;28;20128;-65
2022/07/13 11:30:56;;;;;;;3.58;3.38;;;;;;;26.30;28.52;97148.31;5025749;28;20076;-62
2022/07/13 11:33:23;;;;;;;4.43;4.10;;;;;;;26.21;28.62;97127.63;5017931;28;20112;-61
2022/07/13 11:35:50;;;;;;;3.90;3.80;;;;;;;26.29;28.86;97145.94;5011060;28;20160;-61
2022/07/13 11:38:19;;;;;;;4.93;3.63;;;;;;;26.09;29.49;97142.75;5010509;28;20085;-60
2022/07/13 11:40:47;;;;;;;3.92;3.72;;;;;;;26.04;30.38;97146.22;5015624;28;21736;-61
2022/07/13 11:43:14;;;;;;;4.25;3.70;;;;;;;25.85;30.16;97147.41;5014865;28;20129;-59
2022/07/13 11:45:42;;;;;;;4.10;3.90;;;;;;;25.28;30.78;97073.09;5013648;28;20145;-60
2022/07/13 11:48:13;;;;;;;5.32;4.00;;;;;;;25.95;29.48;97137.66;5013590;28;20107;-60
2022/07/13 11:50:52;;;;;;;3.78;3.58;;;;;;;26.37;28.96;97135.84;5015363;28;20065;-60
2022/07/13 11:53:27;;;;;;;4.32;4.13;;;;;;;26.32;27.68;97093.88;5005200;28;20132;-62